createdAt,value
2023-01-27T00:00:50.350Z,973.12
2023-01-27T00:01:50.353Z,973.09
2023-01-27T00:02:50.404Z,973.08
2023-01-27T00:03:50.309Z,973.09
2023-01-27T00:04:50.281Z,973.09
2023-01-27T00:05:50.242Z,973.10
2023-01-27T00:06:50.234Z,973.05
2023-01-27T00:07:50.213Z,973.05
2023-01-27T00:08:50.213Z,973.08
2023-01-27T00:09:50.170Z,973.06
2023-01-27T00:10:50.163Z,973.10
2023-01-27T00:11:50.136Z,973.09
2023-01-27T00:12:50.117Z,973.09
2023-01-27T00:13:50.098Z,973.08
2023-01-27T00:14:50.083Z,973.09
2023-01-27T00:15:50.093Z,973.12
2023-01-27T00:16:50.046Z,973.09
2023-01-27T00:17:50.038Z,973.10
2023-01-27T00:18:50.006Z,973.10
2023-01-27T00:19:49.984Z,973.09
2023-01-27T00:20:49.987Z,973.07
2023-01-27T00:21:49.951Z,973.04
2023-01-27T00:22:49.935Z,973.03
2023-01-27T00:23:49.936Z,973.03
2023-01-27T00:24:49.918Z,972.98
2023-01-27T00:25:49.874Z,972.97
2023-01-27T00:26:49.858Z,972.98
2023-01-27T00:27:49.839Z,973.03
2023-01-27T00:28:49.835Z,973.01
2023-01-27T00:29:49.799Z,973.03
2023-01-27T00:30:49.954Z,973.01
2023-01-27T00:31:49.836Z,972.99
2023-01-27T00:32:49.744Z,972.99
2023-01-27T00:33:49.728Z,972.98
2023-01-27T00:34:49.712Z,972.96
2023-01-27T00:35:49.696Z,972.96
2023-01-27T00:36:49.669Z,972.97
2023-01-27T00:37:49.702Z,972.95
2023-01-27T00:38:49.636Z,972.91
2023-01-27T00:39:49.617Z,972.94
2023-01-27T00:40:49.615Z,972.95
2023-01-27T00:41:49.586Z,972.94
2023-01-27T00:42:49.568Z,972.92
2023-01-27T00:43:49.547Z,972.89
2023-01-27T00:44:49.523Z,972.89
2023-01-27T00:45:49.505Z,972.88
2023-01-27T00:46:49.624Z,972.87
2023-01-27T00:47:49.473Z,972.86
2023-01-27T00:48:49.448Z,972.88
2023-01-27T00:49:49.436Z,972.89
2023-01-27T00:50:49.409Z,972.85
2023-01-27T00:51:49.396Z,972.85
2023-01-27T00:52:49.375Z,972.88
2023-01-27T00:53:49.372Z,972.87
2023-01-27T00:54:49.346Z,972.88
2023-01-27T00:55:49.347Z,972.88
2023-01-27T00:56:49.372Z,972.90
2023-01-27T00:57:49.283Z,972.86
2023-01-27T00:58:49.263Z,972.86
2023-01-27T00:59:49.258Z,972.82
2023-01-27T01:00:49.231Z,972.84
2023-01-27T01:01:49.311Z,972.86
2023-01-27T01:02:49.293Z,972.88
2023-01-27T01:03:49.174Z,972.84
2023-01-27T01:04:49.160Z,972.84
2023-01-27T01:05:49.144Z,972.84
2023-01-27T01:06:49.120Z,972.87
2023-01-27T01:07:49.101Z,972.86
2023-01-27T01:08:49.080Z,972.84
2023-01-27T01:09:49.064Z,972.84
2023-01-27T01:10:49.044Z,972.83
2023-01-27T01:11:49.028Z,972.84
2023-01-27T01:12:49.024Z,972.83
2023-01-27T01:13:48.991Z,972.79
2023-01-27T01:14:48.969Z,972.85
2023-01-27T01:15:49.013Z,972.86
2023-01-27T01:16:48.934Z,972.83
2023-01-27T01:17:48.933Z,972.84
2023-01-27T01:18:48.910Z,972.88
2023-01-27T01:19:48.886Z,972.89
2023-01-27T01:20:48.862Z,972.88
2023-01-27T01:21:48.844Z,972.90
2023-01-27T01:22:48.825Z,972.90
2023-01-27T01:23:48.833Z,972.86
2023-01-27T01:24:48.787Z,972.87
2023-01-27T01:25:48.775Z,972.89
2023-01-27T01:26:48.749Z,972.84
2023-01-27T01:27:48.740Z,972.82
2023-01-27T01:28:48.785Z,972.81
2023-01-27T01:29:48.696Z,972.90
2023-01-27T01:30:48.719Z,972.84
2023-01-27T01:31:48.787Z,972.84
2023-01-27T01:32:48.640Z,972.85
2023-01-27T01:33:48.631Z,972.77
2023-01-27T01:34:48.615Z,972.80
2023-01-27T01:35:48.589Z,972.82
2023-01-27T01:36:48.569Z,972.80
2023-01-27T01:37:48.550Z,972.78
2023-01-27T01:38:48.534Z,972.79
2023-01-27T01:39:48.513Z,972.78
2023-01-27T01:40:48.491Z,972.79
2023-01-27T01:41:48.480Z,972.79
2023-01-27T01:42:48.506Z,972.74
2023-01-27T01:43:48.446Z,972.72
2023-01-27T01:44:48.441Z,972.74
2023-01-27T01:45:48.403Z,972.76
2023-01-27T01:46:48.432Z,972.74
2023-01-27T01:47:48.367Z,972.72
2023-01-27T01:48:48.347Z,972.69
2023-01-27T01:49:48.328Z,972.69
2023-01-27T01:50:48.330Z,972.71
2023-01-27T01:51:48.309Z,972.71
2023-01-27T01:52:48.275Z,972.74
2023-01-27T01:53:48.263Z,972.71
2023-01-27T01:54:48.250Z,972.70
2023-01-27T01:55:48.218Z,972.69
2023-01-27T01:56:48.197Z,972.68
2023-01-27T01:57:48.183Z,972.73
2023-01-27T01:58:48.166Z,972.74
2023-01-27T01:59:48.150Z,972.69
2023-01-27T02:00:48.173Z,972.70
2023-01-27T02:01:48.109Z,972.67
2023-01-27T02:02:48.145Z,972.67
2023-01-27T02:03:48.073Z,972.66
2023-01-27T02:04:48.051Z,972.60
2023-01-27T02:05:48.041Z,972.60
2023-01-27T02:06:48.019Z,972.60
2023-01-27T02:07:48.000Z,972.57
2023-01-27T02:08:47.975Z,972.60
2023-01-27T02:09:47.962Z,972.58
2023-01-27T02:10:47.943Z,972.61
2023-01-27T02:11:47.925Z,972.62
2023-01-27T02:12:47.903Z,972.58
2023-01-27T02:13:47.888Z,972.57
2023-01-27T02:14:47.868Z,972.58
2023-01-27T02:15:47.871Z,972.61
2023-01-27T02:16:47.949Z,972.58
2023-01-27T02:17:47.815Z,972.55
2023-01-27T02:18:47.795Z,972.55
2023-01-27T02:19:47.779Z,972.51
2023-01-27T02:20:47.755Z,972.50
2023-01-27T02:21:49.662Z,972.50
2023-01-27T02:22:47.776Z,972.51
2023-01-27T02:23:47.739Z,972.53
2023-01-27T02:24:47.707Z,972.45
2023-01-27T02:25:47.682Z,972.46
2023-01-27T02:26:47.647Z,972.46
2023-01-27T02:27:47.635Z,972.46
2023-01-27T02:28:47.611Z,972.48
2023-01-27T02:29:47.601Z,972.47
2023-01-27T02:30:47.980Z,972.45
2023-01-27T02:31:47.712Z,972.41
2023-01-27T02:32:47.557Z,972.47
2023-01-27T02:33:47.523Z,972.46
2023-01-27T02:34:47.504Z,972.48
2023-01-27T02:35:47.491Z,972.47
2023-01-27T02:36:47.466Z,972.46
2023-01-27T02:37:47.448Z,972.47
2023-01-27T02:38:47.429Z,972.51
2023-01-27T02:39:47.418Z,972.53
2023-01-27T02:40:47.395Z,972.51
2023-01-27T02:41:47.386Z,972.54
2023-01-27T02:42:47.355Z,972.53
2023-01-27T02:43:47.357Z,972.50
2023-01-27T02:44:47.329Z,972.51
2023-01-27T02:45:47.388Z,972.48
2023-01-27T02:46:47.291Z,972.48
2023-01-27T02:47:47.268Z,972.46
2023-01-27T02:48:47.269Z,972.48
2023-01-27T02:49:47.231Z,972.46
2023-01-27T02:50:47.217Z,972.43
2023-01-27T02:51:47.200Z,972.46
2023-01-27T02:52:47.172Z,972.43
2023-01-27T02:53:47.157Z,972.43
2023-01-27T02:54:47.140Z,972.44
2023-01-27T02:55:47.121Z,972.41
2023-01-27T02:56:47.100Z,972.39
2023-01-27T02:57:47.083Z,972.41
2023-01-27T02:58:47.063Z,972.42
2023-01-27T02:59:47.049Z,972.39
2023-01-27T03:00:47.026Z,972.43
2023-01-27T03:01:47.109Z,972.37
2023-01-27T03:02:47.060Z,972.37
2023-01-27T03:03:47.299Z,972.33
2023-01-27T03:04:46.973Z,972.35
2023-01-27T03:05:46.947Z,972.37
2023-01-27T03:06:46.918Z,972.33
2023-01-27T03:07:46.901Z,972.40
2023-01-27T03:08:46.877Z,972.37
2023-01-27T03:09:46.868Z,972.35
2023-01-27T03:10:46.843Z,972.37
2023-01-27T03:11:46.833Z,972.35
2023-01-27T03:12:46.809Z,972.37
2023-01-27T03:13:46.791Z,972.36
2023-01-27T03:14:46.773Z,972.38
2023-01-27T03:15:46.776Z,972.40
2023-01-27T03:16:46.733Z,972.43
2023-01-27T03:17:46.720Z,972.45
2023-01-27T03:18:46.695Z,972.44
2023-01-27T03:19:46.681Z,972.45
2023-01-27T03:20:46.688Z,972.45
2023-01-27T03:21:46.647Z,972.43
2023-01-27T03:22:46.632Z,972.42
2023-01-27T03:23:46.610Z,972.38
2023-01-27T03:24:46.585Z,972.37
2023-01-27T03:25:46.572Z,972.39
2023-01-27T03:26:46.569Z,972.33
2023-01-27T03:27:46.536Z,972.38
2023-01-27T03:28:46.514Z,972.35
2023-01-27T03:29:46.501Z,972.37
2023-01-27T03:30:46.576Z,972.36
2023-01-27T03:31:46.541Z,972.34
2023-01-27T03:32:46.438Z,972.36
2023-01-27T03:33:46.425Z,972.36
2023-01-27T03:34:46.408Z,972.35
2023-01-27T03:35:46.389Z,972.34
2023-01-27T03:36:46.392Z,972.33
2023-01-27T03:37:46.351Z,972.33
2023-01-27T03:38:46.329Z,972.31
2023-01-27T03:39:46.320Z,972.29
2023-01-27T03:40:46.296Z,972.31
2023-01-27T03:41:46.293Z,972.23
2023-01-27T03:42:46.259Z,972.28
2023-01-27T03:43:46.242Z,972.33
2023-01-27T03:44:46.222Z,972.33
2023-01-27T03:45:46.227Z,972.31
2023-01-27T03:46:46.183Z,972.35
2023-01-27T03:47:46.171Z,972.37
2023-01-27T03:48:46.147Z,972.33
2023-01-27T03:49:46.132Z,972.34
2023-01-27T03:50:46.110Z,972.36
2023-01-27T03:51:46.095Z,972.41
2023-01-27T03:52:46.095Z,972.36
2023-01-27T03:53:46.071Z,972.36
2023-01-27T03:54:46.038Z,972.36
2023-01-27T03:55:46.023Z,972.43
2023-01-27T03:56:46.000Z,972.42
2023-01-27T03:57:45.985Z,972.45
2023-01-27T03:58:45.973Z,972.40
2023-01-27T03:59:45.958Z,972.41
2023-01-27T04:00:45.931Z,972.40
2023-01-27T04:01:45.936Z,972.37
2023-01-27T04:02:45.963Z,972.37
2023-01-27T04:03:45.880Z,972.38
2023-01-27T04:04:45.854Z,972.34
2023-01-27T04:05:45.843Z,972.35
2023-01-27T04:06:45.820Z,972.38
2023-01-27T04:07:45.802Z,972.38
2023-01-27T04:08:45.799Z,972.37
2023-01-27T04:09:45.769Z,972.38
2023-01-27T04:10:45.744Z,972.36
2023-01-27T04:11:45.733Z,972.35
2023-01-27T04:12:45.721Z,972.37
2023-01-27T04:13:45.696Z,972.33
2023-01-27T04:14:45.671Z,972.29
2023-01-27T04:15:45.713Z,972.34
2023-01-27T04:16:45.636Z,972.38
2023-01-27T04:17:45.618Z,972.40
2023-01-27T04:18:45.600Z,972.41
2023-01-27T04:19:45.598Z,972.39
2023-01-27T04:20:45.561Z,972.36
2023-01-27T04:21:45.548Z,972.41
2023-01-27T04:22:45.523Z,972.44
2023-01-27T04:23:45.509Z,972.44
2023-01-27T04:24:45.523Z,972.42
2023-01-27T04:25:45.472Z,972.44
2023-01-27T04:26:45.472Z,972.44
2023-01-27T04:27:45.435Z,972.46
2023-01-27T04:28:45.413Z,972.48
2023-01-27T04:29:45.403Z,972.44
2023-01-27T04:30:45.390Z,972.46
2023-01-27T04:31:45.413Z,972.50
2023-01-27T04:32:45.340Z,972.53
2023-01-27T04:33:45.324Z,972.48
2023-01-27T04:34:45.305Z,972.46
2023-01-27T04:35:45.289Z,972.42
2023-01-27T04:36:45.269Z,972.44
2023-01-27T04:37:45.253Z,972.45
2023-01-27T04:38:45.233Z,972.49
2023-01-27T04:39:45.220Z,972.49
2023-01-27T04:40:45.213Z,972.49
2023-01-27T04:41:45.178Z,972.49
2023-01-27T04:42:45.166Z,972.48
2023-01-27T04:43:45.145Z,972.46
2023-01-27T04:44:45.120Z,972.49
2023-01-27T04:45:45.131Z,972.50
2023-01-27T04:46:45.090Z,972.47
2023-01-27T04:47:45.066Z,972.44
2023-01-27T04:48:45.050Z,972.41
2023-01-27T04:49:45.029Z,972.42
2023-01-27T04:50:45.012Z,972.41
2023-01-27T04:51:46.308Z,972.42
2023-01-27T04:52:44.978Z,972.42
2023-01-27T04:53:44.955Z,972.43
2023-01-27T04:54:45.000Z,972.38
2023-01-27T04:55:44.918Z,972.42
2023-01-27T04:56:44.923Z,972.36
2023-01-27T04:57:44.883Z,972.40
2023-01-27T04:58:44.864Z,972.38
2023-01-27T04:59:44.893Z,972.36
2023-01-27T05:00:44.828Z,972.30
2023-01-27T05:01:44.895Z,972.31
2023-01-27T05:02:44.854Z,972.29
2023-01-27T05:03:44.778Z,972.29
2023-01-27T05:04:44.755Z,972.28
2023-01-27T05:05:44.737Z,972.32
2023-01-27T05:06:44.722Z,972.31
2023-01-27T05:07:44.699Z,972.31
2023-01-27T05:08:44.680Z,972.35
2023-01-27T05:09:44.667Z,972.34
2023-01-27T05:10:44.664Z,972.33
2023-01-27T05:11:44.640Z,972.34
2023-01-27T05:12:44.647Z,972.34
2023-01-27T05:13:44.590Z,972.30
2023-01-27T05:14:44.571Z,972.33
2023-01-27T05:15:44.612Z,972.37
2023-01-27T05:16:44.575Z,972.32
2023-01-27T05:17:44.514Z,972.37
2023-01-27T05:18:44.501Z,972.32
2023-01-27T05:19:44.477Z,972.31
2023-01-27T05:20:44.465Z,972.31
2023-01-27T05:21:44.485Z,972.31
2023-01-27T05:22:44.423Z,972.33
2023-01-27T05:23:44.407Z,972.35
2023-01-27T05:24:44.412Z,972.36
2023-01-27T05:25:44.375Z,972.32
2023-01-27T05:26:44.355Z,972.32
2023-01-27T05:27:44.334Z,972.35
2023-01-27T05:28:44.366Z,972.31
2023-01-27T05:29:44.295Z,972.34
2023-01-27T05:30:44.329Z,972.27
2023-01-27T05:31:44.330Z,972.27
2023-01-27T05:32:44.241Z,972.32
2023-01-27T05:33:44.222Z,972.32
2023-01-27T05:34:44.209Z,972.34
2023-01-27T05:35:44.186Z,972.33
2023-01-27T05:36:44.170Z,972.34
2023-01-27T05:37:44.147Z,972.37
2023-01-27T05:38:44.136Z,972.38
2023-01-27T05:39:44.111Z,972.42
2023-01-27T05:40:44.097Z,972.35
2023-01-27T05:41:44.074Z,972.40
2023-01-27T05:42:44.060Z,972.40
2023-01-27T05:43:44.043Z,972.42
2023-01-27T05:44:44.040Z,972.43
2023-01-27T05:45:44.002Z,972.43
2023-01-27T05:46:44.085Z,972.45
2023-01-27T05:47:43.968Z,972.52
2023-01-27T05:48:43.954Z,972.50
2023-01-27T05:49:43.929Z,972.54
2023-01-27T05:50:43.913Z,972.56
2023-01-27T05:51:43.897Z,972.56
2023-01-27T05:52:43.875Z,972.56
2023-01-27T05:53:43.896Z,972.58
2023-01-27T05:54:43.840Z,972.55
2023-01-27T05:55:43.820Z,972.57
2023-01-27T05:56:43.805Z,972.61
2023-01-27T05:57:43.779Z,972.58
2023-01-27T05:58:43.779Z,972.56
2023-01-27T05:59:43.756Z,972.56
2023-01-27T06:00:43.753Z,972.58
2023-01-27T06:01:43.714Z,972.56
2023-01-27T06:02:43.770Z,972.61
2023-01-27T06:03:43.679Z,972.64
2023-01-27T06:04:43.658Z,972.65
2023-01-27T06:05:43.637Z,972.67
2023-01-27T06:06:43.623Z,972.69
2023-01-27T06:07:43.604Z,972.65
2023-01-27T06:08:43.584Z,972.67
2023-01-27T06:09:43.561Z,972.67
2023-01-27T06:10:43.548Z,972.74
2023-01-27T06:11:43.524Z,972.69
2023-01-27T06:12:43.509Z,972.73
2023-01-27T06:13:43.489Z,972.69
2023-01-27T06:14:43.474Z,972.59
2023-01-27T06:15:43.461Z,972.66
2023-01-27T06:16:43.567Z,972.63
2023-01-27T06:17:43.433Z,972.61
2023-01-27T06:18:43.400Z,972.59
2023-01-27T06:19:43.379Z,972.59
2023-01-27T06:20:43.364Z,972.59
2023-01-27T06:21:43.344Z,972.58
2023-01-27T06:22:43.335Z,972.55
2023-01-27T06:23:43.314Z,972.59
2023-01-27T06:24:43.293Z,972.58
2023-01-27T06:25:43.265Z,972.56
2023-01-27T06:26:43.257Z,972.56
2023-01-27T06:27:43.229Z,972.57
2023-01-27T06:28:43.216Z,972.54
2023-01-27T06:29:43.192Z,972.50
2023-01-27T06:30:43.180Z,972.47
2023-01-27T06:31:43.198Z,972.48
2023-01-27T06:32:43.157Z,972.49
2023-01-27T06:33:43.121Z,972.51
2023-01-27T06:34:43.101Z,972.54
2023-01-27T06:35:43.081Z,972.56
2023-01-27T06:36:43.067Z,972.57
2023-01-27T06:37:43.045Z,972.57
2023-01-27T06:38:43.033Z,972.56
2023-01-27T06:39:43.006Z,972.55
2023-01-27T06:40:43.005Z,972.57
2023-01-27T06:41:42.968Z,972.62
2023-01-27T06:42:42.954Z,972.68
2023-01-27T06:43:42.931Z,972.67
2023-01-27T06:44:42.915Z,972.68
2023-01-27T06:45:42.903Z,972.66
2023-01-27T06:46:42.965Z,972.68
2023-01-27T06:47:42.859Z,972.68
2023-01-27T06:48:42.871Z,972.70
2023-01-27T06:49:42.818Z,972.77
2023-01-27T06:50:42.806Z,972.76
2023-01-27T06:51:42.781Z,972.79
2023-01-27T06:52:42.779Z,972.79
2023-01-27T06:53:42.794Z,972.82
2023-01-27T06:54:42.728Z,972.86
2023-01-27T06:55:42.710Z,972.79
2023-01-27T06:56:42.693Z,972.77
2023-01-27T06:57:42.676Z,972.79
2023-01-27T06:58:42.661Z,972.81
2023-01-27T06:59:42.634Z,972.83
2023-01-27T07:00:42.618Z,972.84
2023-01-27T07:01:42.631Z,972.89
2023-01-27T07:02:42.636Z,972.90
2023-01-27T07:03:44.741Z,972.93
2023-01-27T07:04:42.592Z,972.92
2023-01-27T07:05:42.521Z,972.91
2023-01-27T07:06:42.513Z,972.94
2023-01-27T07:07:42.485Z,972.99
2023-01-27T07:08:42.477Z,973.00
2023-01-27T07:09:52.088Z,972.95
2023-01-27T07:10:42.445Z,972.98
2023-01-27T07:11:42.413Z,972.95
2023-01-27T07:12:42.393Z,972.93
2023-01-27T07:13:42.371Z,972.94
2023-01-27T07:14:42.363Z,972.95
2023-01-27T07:15:42.346Z,972.99
2023-01-27T07:16:42.322Z,972.99
2023-01-27T07:17:42.297Z,973.02
2023-01-27T07:18:42.282Z,973.05
2023-01-27T07:19:42.263Z,973.06
2023-01-27T07:20:42.278Z,973.04
2023-01-27T07:21:42.224Z,973.02
2023-01-27T07:22:42.208Z,973.01
2023-01-27T07:23:42.186Z,973.03
2023-01-27T07:24:42.171Z,973.04
2023-01-27T07:25:42.151Z,973.06
2023-01-27T07:26:42.137Z,973.05
2023-01-27T07:27:42.115Z,973.04
2023-01-27T07:28:42.096Z,973.04
2023-01-27T07:29:42.074Z,973.07
2023-01-27T07:30:42.080Z,973.11
2023-01-27T07:31:42.160Z,973.18
2023-01-27T07:32:42.021Z,973.21
2023-01-27T07:33:42.009Z,973.28
2023-01-27T07:34:41.985Z,973.30
2023-01-27T07:35:41.962Z,973.21
2023-01-27T07:36:41.968Z,973.23
2023-01-27T07:37:41.925Z,973.28
2023-01-27T07:38:41.912Z,973.24
2023-01-27T07:39:41.900Z,973.32
2023-01-27T07:40:41.872Z,973.32
2023-01-27T07:41:41.850Z,973.27
2023-01-27T07:42:41.835Z,973.32
2023-01-27T07:43:41.825Z,973.33
2023-01-27T07:44:41.811Z,973.30
2023-01-27T07:45:41.850Z,973.32
2023-01-27T07:46:41.764Z,973.30
2023-01-27T07:47:41.744Z,973.25
2023-01-27T07:48:41.722Z,973.23
2023-01-27T07:49:41.705Z,973.23
2023-01-27T07:50:41.696Z,973.20
2023-01-27T07:51:41.664Z,973.26
2023-01-27T07:52:41.675Z,973.28
2023-01-27T07:53:41.626Z,973.26
2023-01-27T07:54:41.611Z,973.27
2023-01-27T07:55:41.589Z,973.30
2023-01-27T07:56:41.573Z,973.30
2023-01-27T07:57:41.604Z,973.36
2023-01-27T07:58:41.535Z,973.37
2023-01-27T07:59:41.519Z,973.33
2023-01-27T08:00:41.561Z,973.40
2023-01-27T08:01:41.476Z,973.48
2023-01-27T08:02:41.461Z,973.39
2023-01-27T08:03:41.441Z,973.40
2023-01-27T08:04:52.526Z,973.41
2023-01-27T08:05:41.404Z,973.41
2023-01-27T08:06:41.400Z,973.47
2023-01-27T08:07:41.367Z,973.42
2023-01-27T08:08:41.367Z,973.42
2023-01-27T08:09:41.333Z,973.35
2023-01-27T08:10:41.314Z,973.30
2023-01-27T08:11:41.294Z,973.36
2023-01-27T08:12:41.273Z,973.36
2023-01-27T08:13:41.253Z,973.34
2023-01-27T08:14:41.240Z,973.32
2023-01-27T08:15:41.216Z,973.33
2023-01-27T08:16:41.277Z,973.34
2023-01-27T08:17:41.179Z,973.40
2023-01-27T08:18:41.162Z,973.38
2023-01-27T08:19:41.139Z,973.46
2023-01-27T08:20:41.124Z,973.46
2023-01-27T08:21:41.103Z,973.47
2023-01-27T08:22:41.091Z,973.49
2023-01-27T08:23:41.063Z,973.55
2023-01-27T08:24:41.077Z,973.51
2023-01-27T08:25:41.029Z,973.49
2023-01-27T08:26:41.033Z,973.45
2023-01-27T08:27:40.997Z,973.49
2023-01-27T08:28:41.002Z,973.49
2023-01-27T08:29:41.155Z,973.55
2023-01-27T08:30:41.023Z,973.51
2023-01-27T08:31:40.954Z,973.47
2023-01-27T08:32:40.900Z,973.52
2023-01-27T08:33:40.880Z,973.49
2023-01-27T08:34:40.874Z,973.53
2023-01-27T08:35:40.842Z,973.58
2023-01-27T08:36:40.824Z,973.58
2023-01-27T08:37:40.808Z,973.53
2023-01-27T08:38:40.788Z,973.55
2023-01-27T08:39:40.767Z,973.59
2023-01-27T08:40:40.770Z,973.65
2023-01-27T08:41:40.737Z,973.64
2023-01-27T08:42:40.723Z,973.64
2023-01-27T08:43:40.707Z,973.71
2023-01-27T08:44:40.675Z,973.69
2023-01-27T08:45:40.686Z,973.74
2023-01-27T08:46:40.638Z,973.65
2023-01-27T08:47:40.662Z,973.61
2023-01-27T08:48:40.607Z,973.64
2023-01-27T08:49:40.577Z,973.65
2023-01-27T08:50:40.566Z,973.70
2023-01-27T08:51:40.548Z,973.68
2023-01-27T08:52:40.531Z,973.65
2023-01-27T08:53:40.503Z,973.66
2023-01-27T08:54:40.493Z,973.67
2023-01-27T08:55:40.468Z,973.66
2023-01-27T08:56:40.468Z,973.67
2023-01-27T08:57:40.441Z,973.62
2023-01-27T08:58:40.410Z,973.65
2023-01-27T08:59:40.391Z,973.60
2023-01-27T09:00:40.373Z,973.60
2023-01-27T09:01:40.399Z,973.65
2023-01-27T09:02:40.336Z,973.66
2023-01-27T09:03:40.316Z,973.76
2023-01-27T09:04:40.376Z,973.70
2023-01-27T09:05:40.276Z,973.67
2023-01-27T09:06:40.255Z,973.69
2023-01-27T09:07:40.242Z,973.68
2023-01-27T09:08:40.221Z,973.67
2023-01-27T09:09:40.206Z,973.65
2023-01-27T09:10:40.181Z,973.69
2023-01-27T09:11:40.168Z,973.71
2023-01-27T09:12:40.161Z,973.64
2023-01-27T09:13:40.128Z,973.68
2023-01-27T09:14:40.123Z,973.65
2023-01-27T09:15:40.089Z,973.62
2023-01-27T09:16:40.066Z,973.67
2023-01-27T09:17:40.063Z,973.63
2023-01-27T09:18:40.030Z,973.64
2023-01-27T09:19:40.013Z,973.68
2023-01-27T09:20:39.996Z,973.65
2023-01-27T09:21:39.976Z,973.67
2023-01-27T09:22:39.954Z,973.71
2023-01-27T09:23:39.938Z,973.67
2023-01-27T09:24:39.916Z,973.71
2023-01-27T09:25:39.922Z,973.70
2023-01-27T09:26:39.887Z,973.73
2023-01-27T09:27:40.307Z,973.70
2023-01-27T09:28:39.859Z,973.73
2023-01-27T09:29:39.824Z,973.77
2023-01-27T09:30:41.066Z,973.80
2023-01-27T09:31:39.879Z,973.72
2023-01-27T09:32:39.765Z,973.78
2023-01-27T09:33:39.750Z,973.81
2023-01-27T09:34:39.734Z,973.82
2023-01-27T09:35:39.717Z,973.78
2023-01-27T09:36:39.690Z,973.81
2023-01-27T09:37:39.672Z,973.79
2023-01-27T09:38:39.653Z,973.77
2023-01-27T09:39:39.639Z,973.81
2023-01-27T09:40:39.626Z,973.82
2023-01-27T09:41:39.601Z,973.78
2023-01-27T09:42:39.582Z,973.76
2023-01-27T09:43:39.565Z,973.85
2023-01-27T09:44:39.570Z,973.85
2023-01-27T09:45:39.524Z,973.82
2023-01-27T09:46:39.511Z,973.91
2023-01-27T09:47:39.485Z,973.83
2023-01-27T09:48:39.472Z,973.87
2023-01-27T09:49:39.448Z,973.88
2023-01-27T09:50:39.433Z,973.84
2023-01-27T09:51:39.409Z,973.81
2023-01-27T09:52:47.641Z,973.82
2023-01-27T09:53:39.374Z,973.82
2023-01-27T09:54:39.368Z,973.85
2023-01-27T09:55:39.337Z,973.86
2023-01-27T09:56:39.313Z,973.88
2023-01-27T09:57:39.304Z,973.86
2023-01-27T09:58:39.277Z,973.90
2023-01-27T09:59:41.474Z,973.91
2023-01-27T10:00:39.257Z,973.88
2023-01-27T10:01:39.316Z,973.85
2023-01-27T10:02:39.209Z,973.90
2023-01-27T10:03:39.187Z,973.84
2023-01-27T10:04:39.201Z,973.80
2023-01-27T10:05:39.147Z,973.84
2023-01-27T10:06:39.140Z,973.88
2023-01-27T10:07:39.111Z,973.83
2023-01-27T10:08:39.088Z,973.80
2023-01-27T10:09:39.097Z,973.87
2023-01-27T10:10:39.051Z,973.83
2023-01-27T10:11:39.036Z,973.79
2023-01-27T10:12:39.017Z,973.70
2023-01-27T10:13:39.001Z,973.75
2023-01-27T10:14:38.978Z,973.79
2023-01-27T10:15:38.960Z,973.73
2023-01-27T10:16:38.991Z,973.72
2023-01-27T10:17:38.921Z,973.75
2023-01-27T10:18:38.901Z,973.82
2023-01-27T10:19:38.885Z,973.81
2023-01-27T10:20:38.861Z,973.83
2023-01-27T10:21:38.847Z,973.84
2023-01-27T10:22:38.824Z,973.84
2023-01-27T10:23:38.810Z,973.78
2023-01-27T10:24:38.791Z,973.78
2023-01-27T10:25:38.772Z,973.78
2023-01-27T10:26:38.756Z,973.76
2023-01-27T10:27:38.735Z,973.78
2023-01-27T10:28:38.722Z,973.77
2023-01-27T10:29:38.697Z,973.79
2023-01-27T10:30:38.707Z,973.81
2023-01-27T10:31:38.708Z,973.75
2023-01-27T10:32:38.656Z,973.79
2023-01-27T10:33:38.622Z,973.76
2023-01-27T10:34:38.608Z,973.74
2023-01-27T10:35:38.584Z,973.74
2023-01-27T10:36:38.569Z,973.72
2023-01-27T10:37:38.546Z,973.75
2023-01-27T10:38:38.527Z,973.73
2023-01-27T10:39:38.509Z,973.66
2023-01-27T10:40:38.488Z,973.64
2023-01-27T10:41:38.483Z,973.79
2023-01-27T10:42:38.451Z,973.65
2023-01-27T10:43:38.435Z,973.70
2023-01-27T10:44:38.411Z,973.65
2023-01-27T10:45:38.419Z,973.64
2023-01-27T10:46:38.424Z,973.71
2023-01-27T10:47:38.370Z,973.72
2023-01-27T10:48:38.356Z,973.69
2023-01-27T10:49:38.321Z,973.67
2023-01-27T10:50:38.299Z,973.69
2023-01-27T10:51:38.290Z,973.81
2023-01-27T10:52:38.262Z,973.77
2023-01-27T10:53:38.248Z,973.74
2023-01-27T10:54:38.227Z,973.70
2023-01-27T10:55:38.212Z,973.66
2023-01-27T10:56:38.190Z,973.77
2023-01-27T10:57:38.172Z,973.77
2023-01-27T10:58:38.151Z,973.77
2023-01-27T10:59:38.140Z,973.82
2023-01-27T11:01:09.008Z,973.77
2023-01-27T11:01:38.152Z,973.75
2023-01-27T11:02:38.083Z,973.76
2023-01-27T11:03:38.110Z,973.77
2023-01-27T11:04:38.058Z,973.71
2023-01-27T11:05:38.026Z,973.76
2023-01-27T11:06:38.008Z,973.84
2023-01-27T11:07:37.988Z,973.73
2023-01-27T11:08:37.966Z,973.76
2023-01-27T11:09:37.950Z,973.81
2023-01-27T11:10:37.928Z,973.77
2023-01-27T11:11:37.917Z,973.82
2023-01-27T11:12:37.894Z,973.77
2023-01-27T11:13:37.879Z,973.77
2023-01-27T11:14:38.887Z,973.71
2023-01-27T11:15:37.837Z,973.75
2023-01-27T11:16:37.891Z,973.77
2023-01-27T11:17:37.801Z,973.82
2023-01-27T11:18:37.780Z,973.86
2023-01-27T11:19:37.814Z,973.78
2023-01-27T11:20:37.766Z,973.80
2023-01-27T11:21:37.729Z,973.89
2023-01-27T11:22:37.702Z,973.86
2023-01-27T11:23:37.687Z,973.95
2023-01-27T11:24:37.664Z,973.88
2023-01-27T11:25:37.654Z,973.82
2023-01-27T11:26:37.627Z,973.84
2023-01-27T11:27:37.616Z,973.98
2023-01-27T11:28:37.611Z,973.96
2023-01-27T11:29:37.582Z,973.89
2023-01-27T11:30:37.553Z,973.89
2023-01-27T11:31:38.174Z,973.81
2023-01-27T11:32:37.524Z,973.79
2023-01-27T11:33:37.499Z,973.75
2023-01-27T11:34:37.478Z,973.77
2023-01-27T11:35:37.462Z,973.74
2023-01-27T11:36:37.471Z,973.76
2023-01-27T11:37:37.439Z,973.72
2023-01-27T11:38:37.408Z,973.73
2023-01-27T11:39:37.402Z,973.76
2023-01-27T11:40:37.364Z,973.74
2023-01-27T11:41:37.352Z,973.72
2023-01-27T11:42:37.332Z,973.75
2023-01-27T11:43:37.319Z,973.81
2023-01-27T11:44:37.289Z,973.80
2023-01-27T11:45:37.363Z,973.88
2023-01-27T11:46:37.254Z,973.74
2023-01-27T11:47:37.243Z,973.71
2023-01-27T11:48:37.219Z,973.66
2023-01-27T11:49:37.209Z,973.67
2023-01-27T11:50:37.177Z,973.67
2023-01-27T11:51:37.164Z,973.67
2023-01-27T11:52:37.156Z,973.65
2023-01-27T11:53:37.122Z,973.66
2023-01-27T11:54:37.114Z,973.67
2023-01-27T11:55:37.087Z,973.68
2023-01-27T11:56:37.085Z,973.66
2023-01-27T11:57:37.063Z,973.68
2023-01-27T11:58:37.038Z,973.66
2023-01-27T11:59:37.013Z,973.67
2023-01-27T12:00:36.989Z,973.71
2023-01-27T12:01:36.976Z,973.65
2023-01-27T12:02:36.953Z,973.65
2023-01-27T12:03:36.960Z,973.65
2023-01-27T12:04:36.974Z,973.65
2023-01-27T12:05:36.900Z,973.58
2023-01-27T12:06:36.877Z,973.59
2023-01-27T12:07:36.862Z,973.65
2023-01-27T12:08:36.881Z,973.64
2023-01-27T12:09:36.837Z,973.60
2023-01-27T12:10:36.806Z,973.65
2023-01-27T12:11:36.793Z,973.64
2023-01-27T12:12:36.764Z,973.55
2023-01-27T12:13:36.749Z,973.62
2023-01-27T12:14:36.735Z,973.61
2023-01-27T12:15:36.712Z,973.58
2023-01-27T12:16:36.700Z,973.53
2023-01-27T12:17:36.678Z,973.53
2023-01-27T12:18:36.653Z,973.62
2023-01-27T12:19:36.638Z,973.56
2023-01-27T12:20:36.613Z,973.61
2023-01-27T12:21:36.610Z,973.57
2023-01-27T12:22:36.583Z,973.55
2023-01-27T12:23:36.565Z,973.65
2023-01-27T12:24:36.562Z,973.56
2023-01-27T12:25:36.524Z,973.62
2023-01-27T12:26:36.504Z,973.46
2023-01-27T12:27:36.486Z,973.56
2023-01-27T12:28:36.472Z,973.51